createdAt,value
2022-12-15T00:03:10.401Z,30.00
2022-12-15T00:06:30.844Z,16.23
2022-12-15T00:09:51.318Z,16.37
2022-12-15T00:13:11.972Z,19.13
2022-12-15T00:16:32.531Z,19.80
2022-12-15T00:19:52.917Z,32.17
2022-12-15T00:23:13.299Z,22.43
2022-12-15T00:26:33.758Z,22.23
2022-12-15T00:29:54.073Z,12.57
2022-12-15T00:33:14.469Z,24.37
2022-12-15T00:36:34.955Z,12.23
2022-12-15T00:39:36.743Z,11.37
2022-12-15T00:42:38.406Z,10.57
2022-12-15T00:45:59.082Z,15.33
2022-12-15T00:49:00.863Z,13.20
2022-12-15T00:52:21.063Z,13.60
2022-12-15T00:55:41.606Z,11.77
2022-12-15T00:59:02.251Z,14.20
2022-12-15T01:02:22.971Z,9.03
2022-12-15T01:05:43.591Z,10.90
2022-12-15T01:09:03.903Z,20.83
2022-12-15T01:12:24.264Z,10.77
2022-12-15T01:15:44.859Z,14.17
2022-12-15T01:19:05.088Z,10.90
2022-12-15T01:22:07.218Z,11.30
2022-12-15T01:25:09.751Z,17.83
2022-12-15T01:28:11.435Z,10.37
2022-12-15T01:31:13.482Z,19.73
2022-12-15T01:34:15.243Z,11.90
2022-12-15T01:37:17.355Z,14.33
2022-12-15T01:40:52.873Z,14.33
2022-12-15T01:43:54.616Z,12.60
2022-12-15T01:46:56.738Z,14.60
2022-12-15T01:49:58.515Z,14.27
2022-12-15T01:53:00.351Z,12.23
2022-12-15T01:56:04.983Z,14.33
2022-12-15T01:59:11.525Z,12.70
2022-12-15T02:02:15.053Z,12.23
2022-12-15T02:05:17.588Z,15.77
2022-12-15T02:08:19.381Z,12.63
2022-12-15T02:11:35.947Z,14.47
2022-12-15T02:14:51.972Z,10.80
2022-12-15T02:18:17.458Z,7.50
2022-12-15T02:21:31.111Z,12.47
2022-12-15T02:24:53.035Z,9.97
2022-12-15T02:28:08.374Z,16.40
2022-12-15T02:31:41.476Z,15.93
2022-12-15T02:34:49.341Z,11.17
2022-12-15T02:37:51.557Z,12.47
2022-12-15T02:41:01.535Z,14.97
2022-12-15T02:44:09.822Z,14.13
2022-12-15T02:47:20.496Z,15.43
2022-12-15T02:50:34.473Z,11.83
2022-12-15T02:53:54.482Z,12.03
2022-12-15T02:57:19.908Z,14.70
2022-12-15T03:00:22.825Z,15.23
2022-12-15T03:03:26.388Z,11.37
2022-12-15T03:06:28.713Z,15.37
2022-12-15T03:09:33.556Z,8.13
2022-12-15T03:12:35.221Z,10.47
2022-12-15T03:15:36.984Z,11.03
2022-12-15T03:18:38.722Z,15.47
2022-12-15T03:21:40.427Z,14.03
2022-12-15T03:24:42.122Z,10.40
2022-12-15T03:27:46.195Z,10.63
2022-12-15T03:30:50.570Z,20.87
2022-12-15T03:33:52.580Z,10.83
2022-12-15T03:36:54.281Z,9.93
2022-12-15T03:39:56.460Z,10.63
2022-12-15T03:42:58.725Z,15.40
2022-12-15T03:46:00.509Z,16.70
2022-12-15T03:49:02.553Z,10.83
2022-12-15T03:52:04.361Z,11.47
2022-12-15T03:55:07.533Z,13.70
2022-12-15T03:58:09.232Z,14.97
2022-12-15T04:01:28.804Z,13.40
2022-12-15T04:04:30.568Z,14.97
2022-12-15T04:07:32.211Z,18.17
2022-12-15T04:10:35.389Z,14.00
2022-12-15T04:13:37.130Z,14.20
2022-12-15T04:16:38.857Z,14.10
2022-12-15T04:19:59.304Z,12.37
2022-12-15T04:23:00.971Z,18.93
2022-12-15T04:26:21.112Z,9.87
2022-12-15T04:29:41.560Z,12.67
2022-12-15T04:33:02.060Z,19.73
2022-12-15T04:36:22.965Z,13.33
2022-12-15T04:39:43.474Z,15.17
2022-12-15T04:43:05.862Z,19.40
2022-12-15T04:46:26.279Z,11.27
2022-12-15T04:49:46.483Z,13.17
2022-12-15T04:53:06.947Z,14.63
2022-12-15T04:56:34.391Z,14.67
2022-12-15T04:59:54.754Z,22.13
2022-12-15T05:03:18.493Z,10.33
2022-12-15T05:06:39.364Z,13.30
2022-12-15T05:10:03.118Z,9.87
2022-12-15T05:13:25.853Z,13.40
2022-12-15T05:16:46.587Z,12.93
2022-12-15T05:20:07.162Z,16.43
2022-12-15T05:23:27.955Z,15.00
2022-12-15T05:26:52.959Z,16.93
2022-12-15T05:30:13.775Z,12.23
2022-12-15T05:33:15.471Z,18.17
2022-12-15T05:36:17.151Z,15.47
2022-12-15T05:39:19.326Z,13.80
2022-12-15T05:42:21.005Z,14.97
2022-12-15T05:45:22.832Z,16.40
2022-12-15T05:48:24.532Z,19.20
2022-12-15T05:51:26.322Z,19.13
2022-12-15T05:54:28.021Z,19.80
2022-12-15T05:57:29.667Z,16.73
2022-12-15T06:00:31.367Z,20.87
2022-12-15T06:03:33.983Z,15.10
2022-12-15T06:06:36.033Z,34.30
2022-12-15T06:09:37.808Z,12.90
2022-12-15T06:12:39.559Z,13.83
2022-12-15T06:15:41.398Z,14.47
2022-12-15T06:18:49.883Z,16.53
2022-12-15T06:21:52.052Z,19.60
2022-12-15T06:24:53.817Z,18.47
2022-12-15T06:28:00.046Z,16.00
2022-12-15T06:31:05.655Z,22.93
2022-12-15T06:34:11.792Z,19.67
2022-12-15T06:37:13.499Z,20.17
2022-12-15T06:40:15.278Z,16.87
2022-12-15T06:43:16.972Z,14.33
2022-12-15T06:46:19.671Z,18.13
2022-12-15T06:49:21.705Z,14.77
2022-12-15T06:52:23.417Z,12.40
2022-12-15T06:55:25.091Z,17.20
2022-12-15T06:58:27.670Z,17.77
2022-12-15T07:01:30.184Z,15.60
2022-12-15T07:04:33.384Z,25.10
2022-12-15T07:07:35.108Z,21.47
2022-12-15T07:10:41.931Z,18.23
2022-12-15T07:13:43.592Z,17.97
2022-12-15T07:16:46.068Z,14.17
2022-12-15T07:19:47.819Z,16.07
2022-12-15T07:22:52.764Z,21.57
2022-12-15T07:25:54.525Z,24.47
2022-12-15T07:28:56.596Z,18.60
2022-12-15T07:32:00.769Z,19.30
2022-12-15T07:35:05.236Z,15.77
2022-12-15T07:38:08.008Z,19.27
2022-12-15T07:41:10.284Z,19.87
2022-12-15T07:44:12.370Z,18.17
2022-12-15T07:47:14.072Z,22.77
2022-12-15T07:50:15.849Z,18.87
2022-12-15T07:53:17.728Z,16.60
2022-12-15T07:56:19.978Z,21.07
2022-12-15T07:59:21.697Z,23.57
2022-12-15T08:02:23.545Z,28.70
2022-12-15T08:05:25.393Z,33.87
2022-12-15T08:08:27.097Z,25.23
2022-12-15T08:11:28.872Z,23.23
2022-12-15T08:14:32.052Z,20.47
2022-12-15T08:17:33.890Z,18.47
2022-12-15T08:20:35.863Z,16.60
2022-12-15T08:23:40.028Z,30.87
2022-12-15T08:26:43.163Z,22.23
2022-12-15T08:29:52.696Z,21.10
2022-12-15T08:32:54.772Z,25.33
2022-12-15T08:36:02.580Z,17.10
2022-12-15T08:39:04.408Z,25.97
2022-12-15T08:42:06.153Z,28.00
2022-12-15T08:45:08.320Z,30.43
2022-12-15T08:48:09.982Z,24.20
2022-12-15T08:51:12.198Z,22.27
2022-12-15T08:54:13.998Z,24.80
2022-12-15T08:57:15.779Z,24.17
2022-12-15T09:00:18.171Z,23.43
2022-12-15T09:03:19.832Z,20.80
2022-12-15T09:06:27.664Z,18.43
2022-12-15T09:09:29.441Z,24.03
2022-12-15T09:12:31.114Z,27.47
2022-12-15T09:16:07.217Z,21.83
2022-12-15T09:18:56.925Z,19.07
2022-12-15T09:21:59.500Z,19.23
2022-12-15T09:25:01.314Z,31.50
2022-12-15T09:28:03.078Z,24.37
2022-12-15T09:31:07.519Z,25.83
2022-12-15T09:34:17.731Z,30.50
2022-12-15T09:37:20.197Z,28.50
2022-12-15T09:40:21.886Z,24.80
2022-12-15T09:43:35.391Z,25.73
2022-12-15T09:46:38.173Z,25.17
2022-12-15T09:49:55.937Z,25.87
2022-12-15T09:52:58.784Z,26.60
2022-12-15T09:56:07.032Z,25.30
2022-12-15T09:59:25.309Z,28.07
2022-12-15T10:03:02.402Z,31.17
2022-12-15T10:06:17.745Z,25.73
2022-12-15T10:09:34.572Z,21.13
2022-12-15T10:12:42.012Z,24.00
2022-12-15T10:15:55.923Z,26.17
2022-12-15T10:19:23.033Z,26.33
2022-12-15T10:22:28.490Z,24.07
2022-12-15T10:25:33.258Z,21.70
2022-12-15T10:28:58.728Z,30.03
2022-12-15T10:32:09.368Z,30.27
2022-12-15T10:35:27.935Z,30.40
2022-12-15T10:38:40.536Z,33.93
2022-12-15T10:41:42.235Z,32.53
2022-12-15T10:44:50.293Z,35.47
2022-12-15T10:47:59.529Z,30.83
2022-12-15T10:51:18.986Z,35.90
2022-12-15T10:54:21.337Z,27.17
2022-12-15T10:57:29.025Z,23.17
2022-12-15T11:00:32.867Z,25.67
2022-12-15T11:03:39.543Z,27.60
2022-12-15T11:06:42.432Z,37.57
2022-12-15T11:09:46.619Z,31.00
2022-12-15T11:13:13.763Z,32.50
2022-12-15T11:16:17.161Z,30.63
2022-12-15T11:20:01.937Z,31.50
2022-12-15T11:23:31.290Z,30.43
2022-12-15T11:26:57.537Z,35.80
2022-12-15T11:30:17.578Z,28.70
2022-12-15T11:33:19.410Z,32.13
2022-12-15T11:36:39.776Z,36.83
2022-12-15T11:39:53.519Z,34.37
2022-12-15T11:43:37.100Z,40.13
2022-12-15T11:47:13.713Z,29.13
2022-12-15T11:50:39.543Z,31.90
2022-12-15T11:54:01.936Z,27.27
2022-12-15T11:57:35.086Z,40.30
2022-12-15T12:00:59.119Z,37.20
2022-12-15T12:04:12.548Z,44.80
2022-12-15T12:07:52.172Z,35.30
2022-12-15T12:11:21.700Z,34.33
2022-12-15T12:14:41.320Z,38.23
2022-12-15T12:17:53.000Z,37.20
2022-12-15T12:21:26.939Z,33.53
2022-12-15T12:24:50.792Z,28.30
2022-12-15T12:28:04.414Z,41.67
2022-12-15T12:31:17.603Z,41.57
2022-12-15T12:34:42.361Z,40.47
2022-12-15T12:41:55.155Z,48.50
2022-12-15T12:44:56.879Z,38.60
2022-12-15T12:48:07.199Z,33.27
2022-12-15T12:51:40.135Z,35.80
2022-12-15T12:54:47.741Z,33.70
2022-12-15T12:57:53.547Z,34.73
2022-12-15T13:01:20.194Z,44.60
2022-12-15T13:04:33.779Z,32.60
2022-12-15T13:07:37.708Z,32.27
2022-12-15T13:10:44.737Z,32.10
2022-12-15T13:13:52.916Z,34.57
2022-12-15T13:17:27.531Z,31.67
2022-12-15T13:20:37.440Z,34.17
2022-12-15T13:23:41.706Z,32.73
2022-12-15T13:30:07.601Z,42.80
2022-12-15T13:33:19.250Z,38.27
2022-12-15T13:36:39.784Z,43.77
2022-12-15T13:39:56.803Z,39.23
2022-12-15T13:43:10.537Z,30.73
2022-12-15T13:46:18.220Z,32.03
2022-12-15T13:49:31.216Z,35.67
2022-12-15T13:56:11.871Z,32.43
2022-12-15T13:59:25.435Z,39.87
2022-12-15T14:02:32.415Z,39.77
2022-12-15T14:05:34.310Z,39.97
2022-12-15T14:08:36.057Z,39.57
2022-12-15T14:11:56.801Z,47.37
2022-12-15T14:14:58.529Z,35.23
2022-12-15T14:18:02.119Z,34.37
2022-12-15T14:21:21.581Z,41.53
2022-12-15T14:24:45.740Z,36.17
2022-12-15T14:27:51.040Z,42.43
2022-12-15T14:30:53.185Z,41.03
2022-12-15T14:34:11.340Z,33.83
2022-12-15T14:37:19.394Z,30.83
2022-12-15T14:40:28.195Z,52.10
2022-12-15T14:43:36.650Z,45.50
2022-12-15T14:46:38.743Z,33.90
2022-12-15T14:49:43.269Z,35.93
2022-12-15T14:52:45.341Z,37.83
2022-12-15T14:55:47.199Z,41.53
2022-12-15T14:59:03.490Z,33.87
2022-12-15T15:02:25.703Z,36.03
2022-12-15T15:03:05.367Z,39.13
2022-12-15T15:03:12.826Z,38.10
2022-12-15T15:05:27.840Z,37.93
2022-12-15T15:08:33.160Z,35.60
2022-12-15T15:11:41.731Z,53.43
2022-12-15T15:14:44.916Z,65.60
2022-12-15T15:17:53.145Z,50.83
2022-12-15T15:20:59.872Z,36.17
2022-12-15T15:24:23.227Z,39.57
2022-12-15T15:27:31.867Z,44.43
2022-12-15T15:30:42.866Z,46.63
2022-12-15T15:33:44.655Z,64.00
2022-12-15T15:36:46.360Z,44.30
2022-12-15T15:39:49.629Z,40.00
2022-12-15T15:42:51.291Z,44.40
2022-12-15T15:46:01.438Z,40.23
2022-12-15T15:49:08.548Z,40.00
2022-12-15T15:52:13.269Z,48.67
2022-12-15T15:55:18.957Z,48.10
2022-12-15T15:58:20.691Z,36.50
2022-12-15T16:01:22.600Z,61.60
2022-12-15T16:04:24.963Z,40.87
2022-12-15T16:07:29.105Z,41.40
2022-12-15T16:10:31.283Z,42.50
2022-12-15T16:13:32.973Z,40.90
2022-12-15T16:16:34.711Z,38.30
2022-12-15T16:19:39.656Z,31.63
2022-12-15T16:22:44.083Z,46.10
2022-12-15T16:25:57.830Z,40.60
2022-12-15T16:28:59.783Z,46.33
2022-12-15T16:32:01.476Z,47.90
2022-12-15T16:35:03.242Z,63.13
2022-12-15T16:38:06.359Z,60.00
2022-12-15T16:41:12.630Z,54.47
2022-12-15T16:44:14.306Z,42.97
2022-12-15T16:47:16.061Z,51.47
2022-12-15T16:50:21.232Z,55.23
2022-12-15T16:53:26.351Z,66.23
2022-12-15T16:56:28.099Z,55.00
2022-12-15T16:59:34.284Z,52.23
2022-12-15T17:02:38.607Z,46.53
2022-12-15T17:05:41.339Z,70.00
2022-12-15T17:08:55.660Z,41.33
2022-12-15T17:11:58.324Z,47.67
2022-12-15T17:15:02.252Z,49.63
2022-12-15T17:18:04.535Z,43.43
2022-12-15T17:21:13.288Z,40.63
2022-12-15T17:24:19.934Z,44.70
2022-12-15T17:27:28.276Z,36.80
2022-12-15T17:30:29.993Z,35.23
2022-12-15T17:33:34.920Z,40.10
2022-12-15T17:36:37.821Z,47.37
2022-12-15T17:39:40.765Z,49.77
2022-12-15T17:42:42.795Z,53.77
2022-12-15T17:45:45.384Z,53.80
2022-12-15T17:48:47.064Z,53.87
2022-12-15T17:51:49.558Z,31.60
2022-12-15T17:54:51.860Z,40.27
2022-12-15T17:57:58.971Z,44.00
2022-12-15T18:01:00.632Z,43.87
2022-12-15T18:04:02.345Z,43.97
2022-12-15T18:07:04.397Z,57.73
2022-12-15T18:10:10.971Z,56.40
2022-12-15T18:13:26.056Z,50.70
2022-12-15T18:16:28.626Z,63.83
2022-12-15T18:19:34.869Z,62.43
2022-12-15T18:22:36.964Z,58.83
2022-12-15T18:25:38.822Z,56.07
2022-12-15T18:28:40.952Z,54.67
2022-12-15T18:31:42.876Z,54.83
2022-12-15T18:34:45.123Z,50.23
2022-12-15T18:37:47.297Z,47.17
2022-12-15T18:40:56.953Z,54.10
2022-12-15T18:43:58.889Z,59.00
2022-12-15T18:47:00.662Z,53.07
2022-12-15T18:50:02.564Z,65.83
2022-12-15T18:53:04.298Z,57.30
2022-12-15T18:56:07.244Z,58.47
2022-12-15T18:59:15.468Z,54.40
2022-12-15T19:02:17.301Z,51.30
2022-12-15T19:05:29.253Z,45.93
2022-12-15T19:08:37.461Z,57.10
2022-12-15T19:11:39.471Z,42.83
2022-12-15T19:14:41.268Z,52.83
2022-12-15T19:18:01.506Z,45.67
2022-12-15T19:21:47.648Z,49.37
2022-12-15T19:24:55.518Z,46.93
2022-12-15T19:27:59.711Z,52.90
2022-12-15T19:31:01.715Z,59.63
2022-12-15T19:34:03.387Z,54.70
2022-12-15T19:37:10.867Z,51.97
2022-12-15T19:40:24.709Z,55.43
2022-12-15T19:43:26.858Z,53.40
2022-12-15T19:46:28.639Z,55.37
2022-12-15T19:49:30.436Z,58.67
2022-12-15T19:52:32.244Z,46.30
2022-12-15T19:55:35.675Z,55.50
2022-12-15T19:58:37.404Z,51.50
2022-12-15T20:01:39.210Z,50.50
2022-12-15T20:04:40.972Z,47.00
2022-12-15T20:07:42.753Z,52.47
2022-12-15T20:10:44.529Z,42.83
2022-12-15T20:13:47.150Z,54.13
2022-12-15T20:16:50.278Z,53.00
2022-12-15T20:19:52.272Z,54.47
2022-12-15T20:22:57.526Z,51.43
2022-12-15T20:25:59.269Z,47.63
2022-12-15T20:29:01.169Z,55.87
2022-12-15T20:32:02.997Z,63.20
2022-12-15T20:35:05.192Z,55.43
2022-12-15T20:38:33.154Z,49.90
2022-12-15T20:41:35.312Z,48.33
2022-12-15T20:44:36.960Z,62.97
2022-12-15T20:47:40.576Z,61.33
2022-12-15T20:50:48.312Z,61.73
2022-12-15T20:53:51.956Z,41.03
2022-12-15T20:56:54.195Z,52.20
2022-12-15T20:59:55.843Z,49.67
2022-12-15T21:02:57.650Z,59.20
2022-12-15T21:06:00.399Z,51.40
2022-12-15T21:09:02.055Z,46.23
2022-12-15T21:12:18.384Z,65.97
2022-12-15T21:15:22.155Z,48.97
2022-12-15T21:21:48.309Z,54.00
2022-12-15T21:24:52.812Z,49.83
2022-12-15T21:27:55.178Z,34.80
2022-12-15T21:30:56.976Z,54.03
2022-12-15T21:33:58.754Z,41.17
2022-12-15T21:37:02.795Z,51.73
2022-12-15T21:40:05.680Z,37.10
2022-12-15T21:43:07.479Z,39.47
2022-12-15T21:46:28.728Z,39.23
2022-12-15T21:49:30.612Z,54.57
2022-12-15T21:52:32.695Z,53.40
2022-12-15T21:55:34.465Z,44.03
2022-12-15T21:58:36.198Z,43.73
2022-12-15T22:01:37.939Z,39.13
2022-12-15T22:04:39.666Z,45.03
2022-12-15T22:07:41.408Z,39.33
2022-12-15T22:10:45.632Z,38.13
2022-12-15T22:13:48.189Z,39.20
2022-12-15T22:16:49.917Z,44.60
2022-12-15T22:19:51.633Z,41.87
2022-12-15T22:22:53.700Z,40.63
2022-12-15T22:25:56.597Z,37.13
2022-12-15T22:29:02.680Z,36.87
2022-12-15T22:32:12.896Z,38.60
2022-12-15T22:35:23.787Z,53.87
2022-12-15T22:38:25.526Z,35.07
2022-12-15T22:41:27.240Z,36.40
2022-12-15T22:44:32.394Z,30.37
2022-12-15T22:47:36.211Z,42.07
2022-12-15T22:50:37.893Z,41.23
2022-12-15T22:53:39.672Z,45.57
2022-12-15T22:56:41.446Z,36.17
2022-12-15T22:59:49.160Z,36.63
2022-12-15T23:02:51.323Z,34.70
2022-12-15T23:05:55.887Z,38.83
2022-12-15T23:08:57.569Z,38.57
2022-12-15T23:11:59.276Z,37.90
2022-12-15T23:15:21.508Z,34.93
2022-12-15T23:18:23.550Z,35.97
2022-12-15T23:21:25.529Z,34.33
2022-12-15T23:24:27.632Z,39.03
2022-12-15T23:27:29.454Z,32.50
2022-12-15T23:30:31.163Z,29.97
2022-12-15T23:33:34.045Z,33.03
2022-12-15T23:36:36.225Z,38.33
2022-12-15T23:39:37.972Z,33.67
2022-12-15T23:42:39.607Z,34.40
2022-12-15T23:45:42.402Z,30.80
2022-12-15T23:48:44.613Z,27.57
2022-12-15T23:51:46.367Z,27.93
2022-12-15T23:54:48.052Z,32.77
2022-12-15T23:57:49.784Z,29.93
